createdAt,value
2023-01-19T00:01:45.026Z,99845.31
2023-01-19T00:04:13.336Z,99814.22
2023-01-19T00:06:41.620Z,99861.44
2023-01-19T00:09:10.034Z,99859.69
2023-01-19T00:11:38.516Z,99864.97
2023-01-19T00:14:07.103Z,99879.81
2023-01-19T00:16:37.076Z,99869.31
2023-01-19T00:19:05.765Z,99575.03
2023-01-19T00:21:34.096Z,99872.81
2023-01-19T00:24:02.762Z,99866.72
2023-01-19T00:26:31.087Z,99866.69
2023-01-19T00:28:59.538Z,99883.31
2023-01-19T00:31:30.028Z,99871.97
2023-01-19T00:33:59.825Z,99866.69
2023-01-19T00:36:28.337Z,99892.03
2023-01-19T00:38:56.670Z,99875.44
2023-01-19T00:41:39.577Z,99886.78
2023-01-19T00:44:08.326Z,99861.44
2023-01-19T00:46:36.588Z,99881.53
2023-01-19T00:49:07.118Z,99885.06
2023-01-19T00:51:35.326Z,99894.66
2023-01-19T00:54:05.028Z,99898.16
2023-01-19T00:56:33.473Z,99903.38
2023-01-19T00:59:01.811Z,99905.16
2023-01-19T01:01:45.789Z,99916.47
2023-01-19T01:04:16.085Z,99929.63
2023-01-19T01:06:44.489Z,99913.88
2023-01-19T01:09:13.058Z,99920.00
2023-01-19T01:11:41.827Z,99915.63
2023-01-19T01:14:11.623Z,99922.59
2023-01-19T01:16:40.605Z,99919.97
2023-01-19T01:19:08.991Z,99902.44
2023-01-19T01:21:38.756Z,99930.41
2023-01-19T01:24:08.164Z,99939.13
2023-01-19T01:26:36.886Z,99938.28
2023-01-19T01:29:06.848Z,99940.03
2023-01-19T01:31:35.218Z,99946.13
2023-01-19T01:34:03.643Z,99935.56
2023-01-19T01:36:33.480Z,99933.78
2023-01-19T01:39:03.402Z,99942.56
2023-01-19T01:41:32.818Z,99951.28
2023-01-19T01:44:03.766Z,99963.50
2023-01-19T01:46:33.084Z,99964.41
2023-01-19T01:49:07.227Z,99959.16
2023-01-19T01:51:40.263Z,99965.28
2023-01-19T01:54:17.076Z,99958.34
2023-01-19T01:56:49.291Z,99961.84
2023-01-19T01:59:26.206Z,99960.97
2023-01-19T02:02:16.342Z,99949.56
2023-01-19T02:04:51.369Z,99967.91
2023-01-19T02:07:44.653Z,99952.19
2023-01-19T02:10:31.737Z,99991.50
2023-01-19T02:13:19.592Z,99993.28
2023-01-19T02:15:51.840Z,99799.06
2023-01-19T02:18:21.505Z,99990.63
2023-01-19T02:21:01.799Z,99983.63
2023-01-19T02:23:44.331Z,99989.75
2023-01-19T02:26:16.094Z,100012.47
2023-01-19T02:28:50.218Z,100002.97
2023-01-19T02:31:19.045Z,99994.28
2023-01-19T02:33:47.484Z,100006.53
2023-01-19T02:36:19.077Z,99974.25
2023-01-19T02:38:51.119Z,100003.13
2023-01-19T02:41:23.518Z,100018.84
2023-01-19T02:43:52.292Z,100024.94
2023-01-19T02:46:20.633Z,100018.69
2023-01-19T02:48:49.004Z,100034.41
2023-01-19T02:51:19.694Z,99676.78
2023-01-19T02:54:29.640Z,100017.84
2023-01-19T02:57:44.268Z,100010.91
2023-01-19T03:00:34.923Z,99869.28
2023-01-19T03:03:16.369Z,99997.91
2023-01-19T03:05:57.159Z,99997.03
2023-01-19T03:08:37.968Z,100011.91
2023-01-19T03:11:10.405Z,99976.91
2023-01-19T03:13:46.388Z,99998.75
2023-01-19T03:16:22.696Z,100001.38
2023-01-19T03:18:56.732Z,99997.91
2023-01-19T03:21:30.458Z,100001.34
2023-01-19T03:24:03.830Z,100003.97
2023-01-19T03:26:39.839Z,100000.47
2023-01-19T03:29:10.514Z,99997.00
2023-01-19T03:31:39.132Z,100003.09
2023-01-19T03:34:11.551Z,99889.41
2023-01-19T03:36:45.887Z,99958.53
2023-01-19T03:39:20.306Z,100001.38
2023-01-19T03:41:53.638Z,99950.66
2023-01-19T03:44:22.035Z,100010.09
2023-01-19T03:46:50.706Z,100024.13
2023-01-19T03:49:19.395Z,100027.59
2023-01-19T03:51:47.940Z,100036.38
2023-01-19T03:54:16.238Z,100043.38
2023-01-19T03:56:44.867Z,100046.84
2023-01-19T03:59:17.453Z,100046.84
2023-01-19T04:01:45.934Z,100039.81
2023-01-19T04:04:15.447Z,100053.81
2023-01-19T04:06:44.114Z,100058.22
2023-01-19T04:09:12.645Z,100054.66
2023-01-19T04:11:40.953Z,100057.28
2023-01-19T04:14:10.927Z,100053.75
2023-01-19T04:16:40.640Z,100032.81
2023-01-19T04:19:08.961Z,100047.66
2023-01-19T04:21:37.284Z,100055.53
2023-01-19T04:24:06.052Z,100058.19
2023-01-19T04:26:34.410Z,100052.00
2023-01-19T04:29:02.663Z,100021.44
2023-01-19T04:31:31.518Z,100046.84
2023-01-19T04:34:01.190Z,100058.19
2023-01-19T04:36:29.572Z,100052.94
2023-01-19T04:38:57.882Z,100052.06
2023-01-19T04:41:26.228Z,100045.94
2023-01-19T04:43:54.661Z,100021.41
2023-01-19T04:46:23.009Z,100054.63
2023-01-19T04:48:51.273Z,100066.91
2023-01-19T04:51:20.987Z,100064.19
2023-01-19T04:53:49.242Z,100071.13
2023-01-19T04:56:17.460Z,100068.47
2023-01-19T04:58:48.205Z,100072.00
2023-01-19T05:01:16.669Z,100072.03
2023-01-19T05:03:44.909Z,100077.31
2023-01-19T05:06:16.237Z,100050.25
2023-01-19T05:08:46.001Z,100051.16
2023-01-19T05:11:14.315Z,100076.53
2023-01-19T05:13:42.587Z,100073.91
2023-01-19T05:16:11.128Z,100063.44
2023-01-19T05:18:39.456Z,100080.06
2023-01-19T05:21:08.703Z,100075.72
2023-01-19T05:23:36.959Z,100084.47
2023-01-19T05:26:07.980Z,100079.19
2023-01-19T05:28:37.989Z,100090.59
2023-01-19T05:31:06.950Z,100077.44
2023-01-19T05:33:35.396Z,100090.53
2023-01-19T05:36:04.360Z,100037.22
2023-01-19T05:38:36.229Z,100063.47
2023-01-19T05:41:06.648Z,100087.97
2023-01-19T05:43:34.989Z,100086.22
2023-01-19T05:46:05.321Z,100093.25
2023-01-19T05:48:33.782Z,100103.75
2023-01-19T05:51:03.023Z,100095.88
2023-01-19T05:53:31.562Z,100109.88
2023-01-19T05:56:03.719Z,100100.25
2023-01-19T05:58:34.474Z,100116.88
2023-01-19T06:01:05.835Z,100118.63
2023-01-19T06:03:34.694Z,100093.28
2023-01-19T06:06:03.830Z,100121.28
2023-01-19T06:08:32.329Z,100123.91
2023-01-19T06:11:00.609Z,100127.44
2023-01-19T06:13:28.954Z,100129.16
2023-01-19T06:16:03.384Z,100124.75
2023-01-19T06:18:31.825Z,100113.38
2023-01-19T06:21:00.126Z,100128.28
2023-01-19T06:23:28.912Z,100112.53
2023-01-19T06:25:57.444Z,100129.16
2023-01-19T06:28:26.196Z,100136.16
2023-01-19T06:30:56.760Z,100105.53
2023-01-19T06:33:27.595Z,100107.28
2023-01-19T06:35:58.853Z,100137.91
2023-01-19T06:38:27.245Z,100150.19
2023-01-19T06:40:58.427Z,100138.78
2023-01-19T06:43:27.532Z,100160.69
2023-01-19T06:45:56.141Z,100160.72
2023-01-19T06:48:26.537Z,100140.53
2023-01-19T06:50:54.809Z,100167.66
2023-01-19T06:53:23.099Z,100171.19
2023-01-19T06:55:51.565Z,100174.72
2023-01-19T06:58:20.148Z,100188.72
2023-01-19T07:00:49.030Z,100183.47
2023-01-19T07:03:22.023Z,100175.56
2023-01-19T07:05:55.051Z,100161.56
2023-01-19T07:08:23.539Z,100195.72
2023-01-19T07:11:24.856Z,100200.09
2023-01-19T07:13:42.991Z,100165.94
2023-01-19T07:16:13.668Z,100213.22
2023-01-19T07:18:42.535Z,100194.81
2023-01-19T07:21:12.265Z,100216.72
2023-01-19T07:23:40.629Z,100218.47
2023-01-19T07:26:08.924Z,100226.38
2023-01-19T07:28:37.817Z,100226.38
2023-01-19T07:31:07.070Z,100236.03
2023-01-19T07:33:35.963Z,100237.78
2023-01-19T07:36:04.489Z,100239.53
2023-01-19T07:38:34.221Z,100241.28
2023-01-19T07:41:03.113Z,100245.66
2023-01-19T07:43:33.832Z,100224.63
2023-01-19T07:46:04.749Z,100258.78
2023-01-19T07:48:36.268Z,100259.66
2023-01-19T07:51:10.969Z,100256.16
2023-01-19T07:53:42.290Z,100263.16
2023-01-19T07:56:10.696Z,100263.16
2023-01-19T07:58:39.131Z,100277.19
2023-01-19T08:01:09.228Z,100243.88
2023-01-19T08:03:37.906Z,100271.06
2023-01-19T08:06:06.990Z,100284.16
2023-01-19T08:08:35.818Z,100279.81
2023-01-19T08:11:06.007Z,100286.84
2023-01-19T08:13:34.327Z,100289.44
2023-01-19T08:16:02.732Z,100285.09
2023-01-19T08:18:31.361Z,100264.06
2023-01-19T08:21:00.372Z,100275.44
2023-01-19T08:23:30.625Z,100296.47
2023-01-19T08:26:00.201Z,100303.47
2023-01-19T08:28:29.986Z,100302.56
2023-01-19T08:31:14.458Z,100312.09
2023-01-19T08:33:47.382Z,100321.72
2023-01-19T08:36:15.689Z,100325.19
2023-01-19T08:38:45.917Z,100327.69
2023-01-19T08:41:16.486Z,100329.44
2023-01-19T08:43:46.364Z,100333.81
2023-01-19T08:46:17.543Z,100332.94
2023-01-19T08:48:48.082Z,100336.38
2023-01-19T08:51:16.933Z,100330.16
2023-01-19T08:53:45.487Z,100342.38
2023-01-19T08:56:14.695Z,100342.19
2023-01-19T08:58:51.184Z,100343.97
2023-01-19T09:01:25.570Z,100339.44
2023-01-19T09:03:54.570Z,100341.00
2023-01-19T09:06:24.401Z,100344.59
2023-01-19T09:08:52.704Z,100353.13
2023-01-19T09:11:21.271Z,100352.91
2023-01-19T09:13:50.906Z,100355.53
2023-01-19T09:16:19.356Z,100357.16
2023-01-19T09:18:47.953Z,100357.38
2023-01-19T09:21:16.457Z,100356.44
2023-01-19T09:23:45.184Z,100365.06
2023-01-19T09:26:13.813Z,100364.97
2023-01-19T09:28:42.081Z,100363.09
2023-01-19T09:31:11.938Z,100368.72
2023-01-19T09:33:40.390Z,100355.63
2023-01-19T09:36:09.294Z,100372.47
2023-01-19T09:38:38.483Z,100380.09
2023-01-19T09:41:21.487Z,100347.53
2023-01-19T09:43:56.064Z,100367.03
2023-01-19T09:46:33.448Z,100365.59
2023-01-19T09:49:06.660Z,100375.47
2023-01-19T09:51:38.998Z,100380.66
2023-01-19T09:54:15.776Z,100383.56
2023-01-19T09:56:45.245Z,100395.66
2023-01-19T09:59:22.899Z,100372.19
2023-01-19T10:02:17.581Z,100204.16
2023-01-19T10:04:52.093Z,100388.09
2023-01-19T10:07:53.605Z,100402.03
2023-01-19T10:10:25.768Z,100385.56
2023-01-19T10:13:10.803Z,100315.47
2023-01-19T10:15:49.823Z,100402.25
2023-01-19T10:18:25.263Z,100073.91
2023-01-19T10:21:01.171Z,100402.13
2023-01-19T10:23:40.689Z,100416.00
2023-01-19T10:26:15.442Z,100406.34
2023-01-19T10:28:45.720Z,100417.56
2023-01-19T10:31:18.690Z,100403.38
2023-01-19T10:33:49.404Z,100397.72
2023-01-19T10:36:21.304Z,100423.69
2023-01-19T10:38:50.924Z,100420.38
2023-01-19T10:41:24.319Z,100422.19
2023-01-19T10:44:02.106Z,100416.34
2023-01-19T10:46:39.596Z,100364.81
2023-01-19T10:49:28.096Z,100410.63
2023-01-19T10:51:57.986Z,100406.13
2023-01-19T10:54:27.967Z,100400.09
2023-01-19T10:56:59.367Z,100423.88
2023-01-19T10:59:37.183Z,100417.09
2023-01-19T11:02:19.388Z,100422.28
2023-01-19T11:04:53.002Z,100400.59
2023-01-19T11:07:24.448Z,100444.28
2023-01-19T11:10:22.759Z,100419.84
2023-01-19T11:13:02.363Z,100420.63
2023-01-19T11:15:35.787Z,100420.75
2023-01-19T11:18:09.111Z,100418.53
2023-01-19T11:20:50.342Z,100421.94
2023-01-19T11:23:26.416Z,100422.66
2023-01-19T11:25:57.908Z,100358.84
2023-01-19T11:28:31.632Z,100422.16
2023-01-19T11:31:02.349Z,100422.63
2023-01-19T11:33:35.427Z,100385.59
2023-01-19T11:36:07.952Z,100422.97
2023-01-19T11:38:44.156Z,100428.53
2023-01-19T11:41:22.970Z,100397.53
2023-01-19T11:43:56.025Z,100434.97
2023-01-19T11:46:28.033Z,100430.31
2023-01-19T11:49:02.203Z,100405.69
2023-01-19T11:51:47.777Z,100393.63
2023-01-19T11:54:23.739Z,100420.97
2023-01-19T11:56:53.278Z,100428.19
2023-01-19T11:59:24.926Z,100421.53
2023-01-19T12:01:57.941Z,100417.09
2023-01-19T12:04:29.672Z,100416.00
2023-01-19T12:07:08.868Z,100413.53
2023-01-19T12:09:43.722Z,100417.00
2023-01-19T12:12:24.697Z,100419.56
2023-01-19T12:14:59.319Z,100412.81
2023-01-19T12:17:30.766Z,100401.22
2023-01-19T12:20:08.591Z,100386.44
2023-01-19T12:22:49.412Z,100418.13
2023-01-19T12:25:24.100Z,100401.53
2023-01-19T12:27:56.338Z,100407.66
2023-01-19T12:30:28.511Z,100398.09
2023-01-19T12:33:39.084Z,100402.34
2023-01-19T12:36:12.335Z,100391.09
2023-01-19T12:38:49.352Z,100396.31
2023-01-19T12:41:28.277Z,100406.91
2023-01-19T12:44:34.165Z,100386.63
2023-01-19T12:47:22.868Z,100397.84
2023-01-19T12:49:54.343Z,100404.75
2023-01-19T12:52:30.765Z,100381.78
2023-01-19T12:55:06.484Z,100412.38
2023-01-19T12:57:40.384Z,100405.63
2023-01-19T13:00:30.987Z,100405.66
2023-01-19T13:03:00.884Z,100403.09
2023-01-19T13:05:58.306Z,100407.38
2023-01-19T13:08:45.970Z,100449.63
2023-01-19T13:11:19.704Z,100409.84
2023-01-19T13:14:36.282Z,100402.75
2023-01-19T13:17:29.647Z,100408.91
2023-01-19T13:20:24.991Z,100403.03
2023-01-19T13:23:25.325Z,100360.13
2023-01-19T13:26:05.417Z,100392.53
2023-01-19T13:28:41.992Z,100377.44
2023-01-19T13:31:12.778Z,100086.78
2023-01-19T13:33:49.163Z,100408.00
2023-01-19T13:36:31.041Z,100398.41
2023-01-19T13:39:02.760Z,100411.97
2023-01-19T13:41:36.285Z,100409.28
2023-01-19T13:44:13.618Z,100407.56
2023-01-19T13:46:42.701Z,100422.34
2023-01-19T13:49:20.323Z,100417.06
2023-01-19T13:52:06.459Z,100411.81
2023-01-19T13:54:35.014Z,100421.44
2023-01-19T13:57:03.335Z,100362.59
2023-01-19T13:59:33.141Z,100411.69
2023-01-19T14:02:12.942Z,100411.81
2023-01-19T14:04:41.367Z,100418.97
2023-01-19T14:07:26.173Z,100422.34
2023-01-19T14:10:05.443Z,100423.31
2023-01-19T14:12:35.044Z,100415.38
2023-01-19T14:15:11.280Z,100434.56
2023-01-19T14:17:39.721Z,100426.63
2023-01-19T14:20:30.572Z,100442.44
2023-01-19T14:22:58.884Z,100440.56
2023-01-19T14:25:33.105Z,100437.97
2023-01-19T14:28:40.419Z,100415.34
2023-01-19T14:31:24.988Z,100444.34
2023-01-19T14:33:58.410Z,100449.59
2023-01-19T14:36:36.217Z,100442.56
2023-01-19T14:39:05.322Z,100457.38
2023-01-19T14:41:39.785Z,100454.63
2023-01-19T14:44:12.048Z,100459.91
2023-01-19T14:46:48.187Z,100418.00
2023-01-19T14:49:23.832Z,100468.06
2023-01-19T14:51:52.806Z,100460.13
2023-01-19T14:54:32.044Z,100463.81
2023-01-19T14:57:00.434Z,100469.19
2023-01-19T14:59:28.860Z,100463.91
2023-01-19T15:01:59.801Z,100284.16
2023-01-19T15:04:28.403Z,100470.00
2023-01-19T15:06:58.638Z,100441.94
2023-01-19T15:09:27.260Z,100467.31
2023-01-19T15:11:55.743Z,100474.31
2023-01-19T15:14:24.448Z,100472.53
2023-01-19T15:16:52.833Z,100480.44
2023-01-19T15:19:22.420Z,100474.38
2023-01-19T15:21:50.844Z,100477.00
2023-01-19T15:24:19.212Z,100470.88
2023-01-19T15:26:47.652Z,100473.47
2023-01-19T15:29:24.941Z,100478.69
2023-01-19T15:31:54.208Z,100413.88
2023-01-19T15:34:23.942Z,100484.03
2023-01-19T15:36:52.375Z,100489.28
2023-01-19T15:39:20.809Z,100486.66
2023-01-19T15:41:49.222Z,100491.00
2023-01-19T15:44:17.643Z,100481.25
2023-01-19T15:46:45.947Z,100491.72
2023-01-19T15:49:14.250Z,100498.69
2023-01-19T15:51:43.988Z,100503.94
2023-01-19T15:54:15.318Z,100470.63
2023-01-19T15:56:43.630Z,100484.69
2023-01-19T15:59:11.902Z,100502.22
2023-01-19T16:01:42.312Z,100502.16
2023-01-19T16:04:12.116Z,100503.91
2023-01-19T16:06:40.586Z,100422.34
2023-01-19T16:09:12.237Z,100499.50
2023-01-19T16:11:40.523Z,100505.75
2023-01-19T16:14:08.789Z,100508.47
2023-01-19T16:16:37.476Z,100509.38
2023-01-19T16:19:06.127Z,100515.56
2023-01-19T16:21:34.515Z,100513.81
2023-01-19T16:24:03.186Z,100525.28
2023-01-19T16:26:35.260Z,100527.97
2023-01-19T16:29:08.665Z,100540.22
2023-01-19T16:31:37.695Z,100550.00
2023-01-19T16:34:06.032Z,100564.97
2023-01-19T16:36:37.131Z,100566.63
2023-01-19T16:39:08.962Z,100577.16
2023-01-19T16:41:38.704Z,100579.78
2023-01-19T16:44:07.501Z,100571.91
2023-01-19T16:46:39.292Z,100562.22
2023-01-19T16:49:16.281Z,100563.09
2023-01-19T16:51:45.773Z,100559.59
2023-01-19T16:54:15.208Z,100556.91
2023-01-19T16:56:45.050Z,100567.34
2023-01-19T16:59:15.774Z,100515.28
2023-01-19T17:01:45.862Z,100503.47
2023-01-19T17:04:14.773Z,100545.16
2023-01-19T17:06:43.309Z,100552.81
2023-01-19T17:09:11.914Z,100540.03
2023-01-19T17:11:40.587Z,100518.41
2023-01-19T17:14:14.154Z,100523.25
2023-01-19T17:16:43.273Z,100547.22
2023-01-19T17:19:16.482Z,100538.19
2023-01-19T17:21:49.691Z,100548.53
2023-01-19T17:24:19.142Z,100545.09
2023-01-19T17:26:48.752Z,100558.22
2023-01-19T17:29:18.805Z,100537.03
2023-01-19T17:31:47.453Z,100560.00
2023-01-19T17:34:15.847Z,100564.72
2023-01-19T17:36:44.126Z,100557.19
2023-01-19T17:39:15.162Z,100569.78
2023-01-19T17:41:43.557Z,100565.50
2023-01-19T17:44:12.195Z,100555.13
2023-01-19T17:46:42.089Z,100557.81
2023-01-19T17:49:11.061Z,100556.94
2023-01-19T17:51:39.380Z,100566.59
2023-01-19T17:54:07.723Z,100561.16
2023-01-19T17:56:38.631Z,100578.00
2023-01-19T17:59:08.175Z,100585.25
2023-01-19T18:01:39.843Z,100582.88
2023-01-19T18:04:10.293Z,100582.22
2023-01-19T18:06:39.135Z,100584.16
2023-01-19T18:09:07.980Z,100556.94
2023-01-19T18:11:36.770Z,100571.06
2023-01-19T18:14:06.650Z,100597.31
2023-01-19T18:16:35.889Z,100584.25
2023-01-19T18:19:04.412Z,100611.47
2023-01-19T18:21:34.158Z,100615.09
2023-01-19T18:24:05.589Z,100610.88
2023-01-19T18:26:36.368Z,100588.09
2023-01-19T18:29:04.771Z,100598.69
2023-01-19T18:31:33.395Z,100590.72
2023-01-19T18:34:01.845Z,100587.97
2023-01-19T18:36:32.013Z,100561.69
2023-01-19T18:39:02.687Z,100583.25
2023-01-19T18:41:31.174Z,100575.25
2023-01-19T18:43:59.872Z,100584.69
2023-01-19T18:46:28.461Z,100595.09
2023-01-19T18:48:56.742Z,100586.38
2023-01-19T18:51:25.073Z,100592.88
2023-01-19T18:53:53.393Z,100608.06
2023-01-19T18:56:23.044Z,100622.47
2023-01-19T18:58:52.238Z,100642.69
2023-01-19T19:01:25.400Z,100615.56
2023-01-19T19:03:55.198Z,100652.00
2023-01-19T19:06:26.899Z,100619.50
2023-01-19T19:08:57.298Z,100660.06
2023-01-19T19:11:27.659Z,100667.09
2023-01-19T19:13:58.020Z,100666.34
2023-01-19T19:16:26.399Z,100665.56
2023-01-19T19:18:55.155Z,100673.59
2023-01-19T19:21:25.182Z,100667.50
2023-01-19T19:23:55.041Z,100664.47
2023-01-19T19:26:24.968Z,100662.38
2023-01-19T19:28:54.672Z,100648.22
2023-01-19T19:31:26.283Z,100671.06
2023-01-19T19:34:12.340Z,100669.19
2023-01-19T19:36:42.346Z,100668.28
2023-01-19T19:39:10.672Z,100653.00
2023-01-19T19:41:38.907Z,100657.53
2023-01-19T19:44:10.315Z,100657.84
2023-01-19T19:46:38.596Z,100667.56
2023-01-19T19:49:06.877Z,100666.59
2023-01-19T19:51:35.541Z,100675.88
2023-01-19T19:54:03.951Z,100673.19
2023-01-19T19:56:34.351Z,100681.50
2023-01-19T19:59:02.992Z,100677.28
2023-01-19T20:01:34.162Z,100675.84
2023-01-19T20:04:09.094Z,100670.19
2023-01-19T20:06:39.724Z,100624.13
2023-01-19T20:09:10.123Z,100671.41
2023-01-19T20:11:38.442Z,100664.06
2023-01-19T20:14:08.152Z,100559.69
2023-01-19T20:16:39.088Z,100696.38
2023-01-19T20:19:07.817Z,100695.63
2023-01-19T20:21:38.031Z,100686.06
2023-01-19T20:24:11.445Z,100708.00
2023-01-19T20:26:43.755Z,100700.81
2023-01-19T20:29:12.908Z,100702.56
2023-01-19T20:31:46.501Z,100678.50
2023-01-19T20:34:17.945Z,100648.22
2023-01-19T20:36:49.423Z,100716.16
2023-01-19T20:39:19.636Z,100718.44
2023-01-19T20:41:51.075Z,100714.09
2023-01-19T20:44:22.360Z,100719.31
2023-01-19T20:46:53.348Z,100716.47
2023-01-19T20:49:22.394Z,100710.38
2023-01-19T20:51:53.103Z,100710.19
2023-01-19T20:54:24.421Z,100719.75
2023-01-19T20:56:52.887Z,100727.34
2023-01-19T20:59:21.184Z,100732.06
2023-01-19T21:01:51.387Z,100729.81
2023-01-19T21:04:20.041Z,100538.59
2023-01-19T21:06:48.428Z,100734.63
2023-01-19T21:09:18.553Z,100695.22
2023-01-19T21:11:46.995Z,100741.16
2023-01-19T21:14:15.383Z,100706.19
2023-01-19T21:16:43.746Z,100738.25
2023-01-19T21:19:13.543Z,100735.91
2023-01-19T21:21:42.110Z,100742.34
2023-01-19T21:24:12.204Z,100747.00
2023-01-19T21:26:41.735Z,100749.78
2023-01-19T21:29:13.313Z,100751.50
2023-01-19T21:31:42.052Z,100752.50
2023-01-19T21:34:12.479Z,100749.13
2023-01-19T21:36:41.096Z,100755.47
2023-01-19T21:39:10.057Z,100763.34
2023-01-19T21:41:42.601Z,100731.81
2023-01-19T21:44:13.471Z,100767.13
2023-01-19T21:46:42.128Z,100724.06
2023-01-19T21:49:18.397Z,100770.06
2023-01-19T21:51:48.098Z,100772.81
2023-01-19T21:54:16.490Z,100765.81
2023-01-19T21:56:45.049Z,100764.84
2023-01-19T21:59:16.143Z,100750.72
2023-01-19T22:01:46.360Z,100768.31
2023-01-19T22:04:16.214Z,100774.38
2023-01-19T22:06:44.687Z,100764.34
2023-01-19T22:09:12.985Z,100764.16
2023-01-19T22:11:41.427Z,100783.50
2023-01-19T22:14:11.386Z,100733.19
2023-01-19T22:16:39.714Z,100786.94
2023-01-19T22:19:08.224Z,100786.16
2023-01-19T22:21:37.976Z,100786.25
2023-01-19T22:24:07.635Z,100789.66
2023-01-19T22:26:37.235Z,100793.44
2023-01-19T22:29:10.986Z,100804.94
2023-01-19T22:31:39.926Z,100798.00
2023-01-19T22:34:10.323Z,100813.03
2023-01-19T22:36:40.325Z,100808.78
2023-01-19T22:39:11.728Z,100810.53
2023-01-19T22:41:43.427Z,100720.50
2023-01-19T22:44:14.588Z,100800.72
2023-01-19T22:46:43.208Z,100819.38
2023-01-19T22:49:15.259Z,100814.97
2023-01-19T22:51:45.412Z,100821.13
2023-01-19T22:54:14.218Z,100818.34
2023-01-19T22:56:43.594Z,100786.66
2023-01-19T22:59:11.898Z,100813.13
2023-01-19T23:01:43.639Z,100820.13
2023-01-19T23:04:15.102Z,100821.00
2023-01-19T23:06:46.910Z,100828.84
2023-01-19T23:09:16.510Z,100825.31
2023-01-19T23:11:48.466Z,100756.56
2023-01-19T23:14:19.314Z,100832.38
2023-01-19T23:16:47.989Z,100829.66
2023-01-19T23:19:17.320Z,100834.03
2023-01-19T23:21:47.345Z,100836.53
2023-01-19T23:24:15.559Z,100831.38
2023-01-19T23:26:43.835Z,100833.06
2023-01-19T23:29:15.661Z,100807.63
2023-01-19T23:31:46.886Z,100837.50
2023-01-19T23:34:15.641Z,100839.13
2023-01-19T23:36:44.702Z,100845.03
2023-01-19T23:39:17.766Z,100843.47
2023-01-19T23:41:46.326Z,100842.63
2023-01-19T23:44:15.130Z,100838.09
2023-01-19T23:46:43.886Z,100843.25
2023-01-19T23:49:12.370Z,100846.78
2023-01-19T23:51:41.453Z,100837.13
2023-01-19T23:54:09.767Z,100847.78
2023-01-19T23:56:42.463Z,100849.50
2023-01-19T23:59:13.010Z,100852.22
